Windfall, Indiana
Current Conditions -  °F | °C
As of 1:55 AM on Thursday 27 Nov 2014 (Local Time) from KOKK Reporting Station
Overcast Overcast  
Wind Chill: -7°   Ceiling: 2600
Heat Index: -2°   Visibility: 10mi
Dew Point: -7°   Wind: 9mph
Humidity: 69%   Direction: 340°NNW
Pressure: 30.14"   Gusts: NA
Location:  40.36°N, 85.96°W
Report Text: KOKK 270655Z AUTO 34008KT 10SM OVC026 M02/M07 A3014 RMK AO1
Loading
Personal Weather Stations






























Interactive Weather Map New forecast layout! Learn more

10-Day Weather Forecast

Advertisements
Track Severe Weather on mobile